createdAt,value
2018-07-09T00:00:28.981Z,1017.02
2018-07-09T00:01:29.001Z,1017.03
2018-07-09T00:02:29.029Z,1017.01
2018-07-09T00:03:29.044Z,1017.03
2018-07-09T00:04:29.085Z,1017.04
2018-07-09T00:05:29.091Z,1017.06
2018-07-09T00:06:29.103Z,1017.03
2018-07-09T00:07:29.120Z,1017.04
2018-07-09T00:08:29.144Z,1017.08
2018-07-09T00:09:29.178Z,1017.07
2018-07-09T00:10:29.190Z,1017.06
2018-07-09T00:11:29.218Z,1017.06
2018-07-09T00:12:29.243Z,1017.09
2018-07-09T00:13:29.253Z,1017.06
2018-07-09T00:14:29.271Z,1017.08
2018-07-09T00:15:29.306Z,1017.06
2018-07-09T00:16:29.325Z,1017.06
2018-07-09T00:17:29.337Z,1017.06
2018-07-09T00:18:29.357Z,1017.04
2018-07-09T00:19:29.389Z,1017.04
2018-07-09T00:20:29.406Z,1017.03
2018-07-09T00:21:29.423Z,1017.01
2018-07-09T00:22:29.446Z,1017.01
2018-07-09T00:23:29.478Z,1017.00
2018-07-09T00:24:29.488Z,1017.02
2018-07-09T00:25:29.512Z,1017.05
2018-07-09T00:26:29.538Z,1017.05
2018-07-09T00:27:29.559Z,1017.01
2018-07-09T00:28:29.583Z,1017.07
2018-07-09T00:29:29.597Z,1017.06
2018-07-09T00:30:29.691Z,1017.06
2018-07-09T00:31:29.641Z,1017.06
2018-07-09T00:32:29.658Z,1017.05
2018-07-09T00:33:29.684Z,1017.00
2018-07-09T00:34:29.707Z,1017.03
2018-07-09T00:35:29.724Z,1017.05
2018-07-09T00:36:29.753Z,1017.08
2018-07-09T00:37:29.764Z,1017.10
2018-07-09T00:38:29.780Z,1017.13
2018-07-09T00:39:29.813Z,1017.16
2018-07-09T00:40:29.841Z,1017.17
2018-07-09T00:41:29.853Z,1017.18
2018-07-09T00:42:29.879Z,1017.18
2018-07-09T00:43:29.896Z,1017.16
2018-07-09T00:44:29.926Z,1017.19
2018-07-09T00:45:29.938Z,1017.18
2018-07-09T00:46:29.960Z,1017.14
2018-07-09T00:47:30.032Z,1017.13
2018-07-09T00:48:30.000Z,1017.08
2018-07-09T00:49:30.029Z,1017.08
2018-07-09T00:50:30.045Z,1017.06
2018-07-09T00:51:30.074Z,1017.07
2018-07-09T00:52:30.093Z,1017.08
2018-07-09T00:53:30.112Z,1017.08
2018-07-09T00:54:30.129Z,1017.09
2018-07-09T00:55:30.154Z,1017.09
2018-07-09T00:56:30.184Z,1017.10
2018-07-09T00:57:30.203Z,1017.10
2018-07-09T00:58:30.212Z,1017.10
2018-07-09T00:59:30.242Z,1017.10
2018-07-09T01:00:30.262Z,1017.08
2018-07-09T01:01:30.286Z,1017.14
2018-07-09T01:02:30.311Z,1017.11
2018-07-09T01:03:30.327Z,1017.15
2018-07-09T01:04:30.345Z,1017.15
2018-07-09T01:05:30.372Z,1017.16
2018-07-09T01:06:30.400Z,1017.16
2018-07-09T01:07:30.415Z,1017.11
2018-07-09T01:08:30.432Z,1017.14
2018-07-09T01:09:30.476Z,1017.08
2018-07-09T01:10:30.488Z,1017.11
2018-07-09T01:11:30.503Z,1017.08
2018-07-09T01:12:30.518Z,1017.13
2018-07-09T01:13:30.540Z,1017.11
2018-07-09T01:14:30.564Z,1017.15
2018-07-09T01:15:30.591Z,1017.14
2018-07-09T01:16:30.610Z,1017.17
2018-07-09T01:17:30.628Z,1017.13
2018-07-09T01:18:30.642Z,1017.11
2018-07-09T01:19:30.666Z,1017.11
2018-07-09T01:20:30.739Z,1017.14
2018-07-09T01:21:30.714Z,1017.13
2018-07-09T01:22:30.729Z,1017.13
2018-07-09T01:23:30.763Z,1017.12
2018-07-09T01:24:30.771Z,1017.11
2018-07-09T01:25:30.806Z,1017.12
2018-07-09T01:26:30.817Z,1017.13
2018-07-09T01:27:30.852Z,1017.15
2018-07-09T01:28:30.874Z,1017.13
2018-07-09T01:29:30.889Z,1017.14
2018-07-09T01:30:31.023Z,1017.17
2018-07-09T01:31:30.917Z,1017.12
2018-07-09T01:32:30.949Z,1017.11
2018-07-09T01:33:30.961Z,1017.11
2018-07-09T01:34:30.992Z,1017.13
2018-07-09T01:35:31.010Z,1017.13
2018-07-09T01:36:31.037Z,1017.09
2018-07-09T01:37:31.053Z,1017.11
2018-07-09T01:38:31.074Z,1017.08
2018-07-09T01:39:31.103Z,1017.12
2018-07-09T01:40:31.131Z,1017.12
2018-07-09T01:41:31.135Z,1017.14
2018-07-09T01:42:31.156Z,1017.12
2018-07-09T01:43:31.182Z,1017.14
2018-07-09T01:44:31.198Z,1017.12
2018-07-09T01:45:31.223Z,1017.15
2018-07-09T01:46:31.251Z,1017.14
2018-07-09T01:47:31.264Z,1017.13
2018-07-09T01:48:31.279Z,1017.16
2018-07-09T01:49:31.309Z,1017.20
2018-07-09T01:50:31.323Z,1017.14
2018-07-09T01:51:31.359Z,1017.14
2018-07-09T01:52:31.379Z,1017.16
2018-07-09T01:53:31.396Z,1017.15
2018-07-09T01:54:31.419Z,1017.18
2018-07-09T01:55:31.434Z,1017.17
2018-07-09T01:56:31.461Z,1017.17
2018-07-09T01:57:31.485Z,1017.15
2018-07-09T01:58:31.503Z,1017.19
2018-07-09T01:59:31.529Z,1017.17
2018-07-09T02:00:31.574Z,1017.17
2018-07-09T02:01:31.564Z,1017.16
2018-07-09T02:02:31.605Z,1017.14
2018-07-09T02:03:31.611Z,1017.11
2018-07-09T02:04:31.637Z,1017.12
2018-07-09T02:05:31.653Z,1017.15
2018-07-09T02:06:31.686Z,1017.13
2018-07-09T02:07:31.697Z,1017.14
2018-07-09T02:08:31.716Z,1017.12
2018-07-09T02:09:31.738Z,1017.13
2018-07-09T02:10:31.762Z,1017.16
2018-07-09T02:11:31.783Z,1017.09
2018-07-09T02:12:31.806Z,1017.12
2018-07-09T02:13:31.822Z,1017.11
2018-07-09T02:14:31.851Z,1017.11
2018-07-09T02:15:31.866Z,1017.09
2018-07-09T02:16:31.881Z,1017.11
2018-07-09T02:17:31.915Z,1017.08
2018-07-09T02:18:31.939Z,1017.07
2018-07-09T02:19:31.950Z,1017.11
2018-07-09T02:20:32.005Z,1017.09
2018-07-09T02:21:32.002Z,1017.11
2018-07-09T02:22:32.014Z,1017.13
2018-07-09T02:23:32.036Z,1017.13
2018-07-09T02:24:32.066Z,1017.12
2018-07-09T02:25:32.089Z,1017.14
2018-07-09T02:26:32.104Z,1017.13
2018-07-09T02:27:32.125Z,1017.17
2018-07-09T02:28:32.150Z,1017.13
2018-07-09T02:29:32.166Z,1017.17
2018-07-09T02:30:32.193Z,1017.20
2018-07-09T02:31:32.208Z,1017.16
2018-07-09T02:32:32.239Z,1017.22
2018-07-09T02:33:32.251Z,1017.17
2018-07-09T02:34:32.279Z,1017.20
2018-07-09T02:35:32.294Z,1017.16
2018-07-09T02:36:32.315Z,1017.14
2018-07-09T02:37:32.343Z,1017.15
2018-07-09T02:38:32.360Z,1017.16
2018-07-09T02:39:32.377Z,1017.18
2018-07-09T02:40:32.402Z,1017.13
2018-07-09T02:41:32.429Z,1017.13
2018-07-09T02:42:32.446Z,1017.13
2018-07-09T02:43:32.481Z,1017.10
2018-07-09T02:44:32.486Z,1017.08
2018-07-09T02:45:32.502Z,1017.10
2018-07-09T02:46:32.543Z,1017.09
2018-07-09T02:47:32.553Z,1017.10
2018-07-09T02:48:32.610Z,1017.07
2018-07-09T02:49:32.598Z,1017.10
2018-07-09T02:50:32.618Z,1017.08
2018-07-09T02:51:32.631Z,1017.11
2018-07-09T02:52:32.668Z,1017.09
2018-07-09T02:53:32.687Z,1017.11
2018-07-09T02:54:32.699Z,1017.09
2018-07-09T02:55:32.724Z,1017.12
2018-07-09T02:56:32.751Z,1017.19
2018-07-09T02:57:32.761Z,1017.19
2018-07-09T02:58:32.784Z,1017.20
2018-07-09T02:59:32.811Z,1017.19
2018-07-09T03:00:32.823Z,1017.19
2018-07-09T03:01:32.847Z,1017.20
2018-07-09T03:02:32.870Z,1017.19
2018-07-09T03:03:32.932Z,1017.21
2018-07-09T03:04:32.915Z,1017.23
2018-07-09T03:05:32.932Z,1017.23
2018-07-09T03:06:32.957Z,1017.24
2018-07-09T03:07:32.987Z,1017.26
2018-07-09T03:08:32.996Z,1017.24
2018-07-09T03:09:33.018Z,1017.22
2018-07-09T03:10:33.054Z,1017.27
2018-07-09T03:11:33.065Z,1017.26
2018-07-09T03:12:33.093Z,1017.25
2018-07-09T03:13:33.109Z,1017.27
2018-07-09T03:14:33.152Z,1017.27
2018-07-09T03:15:33.157Z,1017.28
2018-07-09T03:16:33.170Z,1017.30
2018-07-09T03:17:33.197Z,1017.32
2018-07-09T03:18:33.272Z,1017.30
2018-07-09T03:19:33.232Z,1017.25
2018-07-09T03:20:33.262Z,1017.27
2018-07-09T03:21:33.284Z,1017.26
2018-07-09T03:22:33.298Z,1017.29
2018-07-09T03:23:33.312Z,1017.29
2018-07-09T03:24:33.349Z,1017.30
2018-07-09T03:25:33.374Z,1017.29
2018-07-09T03:26:33.413Z,1017.32
2018-07-09T03:27:33.404Z,1017.31
2018-07-09T03:28:33.423Z,1017.29
2018-07-09T03:29:33.450Z,1017.33
2018-07-09T03:30:33.468Z,1017.32
2018-07-09T03:31:33.486Z,1017.35
2018-07-09T03:32:33.511Z,1017.34
2018-07-09T03:33:33.562Z,1017.39
2018-07-09T03:34:33.569Z,1017.34
2018-07-09T03:35:33.580Z,1017.40
2018-07-09T03:36:33.601Z,1017.41
2018-07-09T03:37:33.631Z,1017.39
2018-07-09T03:38:33.657Z,1017.39
2018-07-09T03:39:33.664Z,1017.41
2018-07-09T03:40:33.685Z,1017.38
2018-07-09T03:41:33.711Z,1017.40
2018-07-09T03:42:33.736Z,1017.37
2018-07-09T03:43:33.751Z,1017.36
2018-07-09T03:44:33.764Z,1017.36
2018-07-09T03:45:33.807Z,1017.35
2018-07-09T03:46:33.815Z,1017.31
2018-07-09T03:47:33.827Z,1017.31
2018-07-09T03:48:33.862Z,1017.27
2018-07-09T03:49:33.885Z,1017.27
2018-07-09T03:50:33.897Z,1017.29
2018-07-09T03:51:33.913Z,1017.30
2018-07-09T03:52:33.943Z,1017.32
2018-07-09T03:53:33.959Z,1017.29
2018-07-09T03:54:33.985Z,1017.36
2018-07-09T03:55:34.007Z,1017.34
2018-07-09T03:56:34.032Z,1017.34
2018-07-09T03:57:34.047Z,1017.35
2018-07-09T03:58:34.066Z,1017.38
2018-07-09T03:59:34.085Z,1017.35
2018-07-09T04:00:34.118Z,1017.40
2018-07-09T04:01:34.130Z,1017.40
2018-07-09T04:02:34.162Z,1017.42
2018-07-09T04:03:34.178Z,1017.41
2018-07-09T04:04:34.201Z,1017.38
2018-07-09T04:05:34.271Z,1017.39
2018-07-09T04:06:34.247Z,1017.42
2018-07-09T04:07:34.269Z,1017.38
2018-07-09T04:08:34.277Z,1017.43
2018-07-09T04:09:34.304Z,1017.43
2018-07-09T04:10:34.317Z,1017.42
2018-07-09T04:11:34.352Z,1017.42
2018-07-09T04:12:34.361Z,1017.43
2018-07-09T04:13:34.382Z,1017.43
2018-07-09T04:14:34.424Z,1017.45
2018-07-09T04:15:34.427Z,1017.47
2018-07-09T04:16:34.453Z,1017.45
2018-07-09T04:17:34.475Z,1017.48
2018-07-09T04:18:34.500Z,1017.46
2018-07-09T04:19:34.536Z,1017.47
2018-07-09T04:20:34.538Z,1017.51
2018-07-09T04:21:34.554Z,1017.48
2018-07-09T04:22:34.582Z,1017.46
2018-07-09T04:23:34.602Z,1017.40
2018-07-09T04:24:34.629Z,1017.41
2018-07-09T04:25:34.654Z,1017.43
2018-07-09T04:26:34.669Z,1017.44
2018-07-09T04:27:34.694Z,1017.46
2018-07-09T04:28:34.705Z,1017.52
2018-07-09T04:29:34.734Z,1017.53
2018-07-09T04:30:34.755Z,1017.52
2018-07-09T04:31:34.775Z,1017.53
2018-07-09T04:32:34.794Z,1017.55
2018-07-09T04:33:34.813Z,1017.53
2018-07-09T04:34:34.841Z,1017.48
2018-07-09T04:35:34.853Z,1017.50
2018-07-09T04:36:34.885Z,1017.46
2018-07-09T04:37:34.904Z,1017.50
2018-07-09T04:38:34.925Z,1017.52
2018-07-09T04:39:34.944Z,1017.50
2018-07-09T04:40:34.988Z,1017.53
2018-07-09T04:41:34.989Z,1017.47
2018-07-09T04:42:35.007Z,1017.50
2018-07-09T04:43:35.027Z,1017.50
2018-07-09T04:44:35.053Z,1017.49
2018-07-09T04:45:35.073Z,1017.43
2018-07-09T04:46:35.098Z,1017.48
2018-07-09T04:47:35.122Z,1017.50
2018-07-09T04:48:35.142Z,1017.54
2018-07-09T04:49:35.158Z,1017.55
2018-07-09T04:50:35.186Z,1017.58
2018-07-09T04:51:35.201Z,1017.57
2018-07-09T04:52:35.221Z,1017.59
2018-07-09T04:53:35.337Z,1017.56
2018-07-09T04:54:35.268Z,1017.56
2018-07-09T04:55:35.289Z,1017.59
2018-07-09T04:56:35.310Z,1017.57
2018-07-09T04:57:35.325Z,1017.63
2018-07-09T04:58:35.374Z,1017.65
2018-07-09T04:59:35.390Z,1017.63
2018-07-09T05:00:35.391Z,1017.65
2018-07-09T05:01:35.448Z,1017.66
2018-07-09T05:02:35.430Z,1017.69
2018-07-09T05:03:35.457Z,1017.68
2018-07-09T05:04:35.507Z,1017.70
2018-07-09T05:05:35.507Z,1017.68
2018-07-09T05:06:35.535Z,1017.72
2018-07-09T05:07:35.543Z,1017.70
2018-07-09T05:08:35.567Z,1017.71
2018-07-09T05:09:35.596Z,1017.69
2018-07-09T05:10:35.606Z,1017.73
2018-07-09T05:11:35.781Z,1017.79
2018-07-09T05:12:35.642Z,1017.79
2018-07-09T05:13:35.678Z,1017.78
2018-07-09T05:14:35.692Z,1017.73
2018-07-09T05:15:35.713Z,1017.74
2018-07-09T05:16:35.750Z,1017.75
2018-07-09T05:17:35.767Z,1017.74
2018-07-09T05:18:35.778Z,1017.75
2018-07-09T05:19:35.797Z,1017.76
2018-07-09T05:20:35.837Z,1017.73
2018-07-09T05:21:35.845Z,1017.72
2018-07-09T05:22:35.862Z,1017.69
2018-07-09T05:23:35.890Z,1017.70
2018-07-09T05:24:35.906Z,1017.74
2018-07-09T05:25:35.931Z,1017.74
2018-07-09T05:26:35.941Z,1017.74
2018-07-09T05:27:35.972Z,1017.73
2018-07-09T05:28:35.990Z,1017.73
2018-07-09T05:29:36.012Z,1017.75
2018-07-09T05:30:36.039Z,1017.73
2018-07-09T05:31:36.058Z,1017.74
2018-07-09T05:32:36.083Z,1017.74
2018-07-09T05:33:36.098Z,1017.71
2018-07-09T05:34:36.129Z,1017.72
2018-07-09T05:35:36.143Z,1017.66
2018-07-09T05:36:36.160Z,1017.65
2018-07-09T05:37:36.186Z,1017.66
2018-07-09T05:38:36.205Z,1017.65
2018-07-09T05:39:36.236Z,1017.63
2018-07-09T05:40:36.249Z,1017.65
2018-07-09T05:41:36.270Z,1017.66
2018-07-09T05:42:36.300Z,1017.68
2018-07-09T05:43:36.312Z,1017.74
2018-07-09T05:44:36.326Z,1017.69
2018-07-09T05:45:36.357Z,1017.67
2018-07-09T05:46:36.379Z,1017.69
2018-07-09T05:47:36.390Z,1017.67
2018-07-09T05:48:36.420Z,1017.70
2018-07-09T05:49:36.446Z,1017.70
2018-07-09T05:50:36.460Z,1017.68
2018-07-09T05:51:36.488Z,1017.67
2018-07-09T05:52:36.506Z,1017.67
2018-07-09T05:53:36.522Z,1017.66
2018-07-09T05:54:36.547Z,1017.66
2018-07-09T05:55:36.559Z,1017.68
2018-07-09T05:56:36.583Z,1017.67
2018-07-09T05:57:36.610Z,1017.67
2018-07-09T05:58:36.641Z,1017.61
2018-07-09T05:59:36.654Z,1017.66
2018-07-09T06:00:36.673Z,1017.64
2018-07-09T06:01:36.689Z,1017.61
2018-07-09T06:02:36.718Z,1017.60
2018-07-09T06:03:36.741Z,1017.60
2018-07-09T06:04:36.760Z,1017.67
2018-07-09T06:05:36.873Z,1017.68
2018-07-09T06:06:36.799Z,1017.70
2018-07-09T06:07:36.824Z,1017.66
2018-07-09T06:08:36.859Z,1017.71
2018-07-09T06:09:36.878Z,1017.69
2018-07-09T06:10:36.900Z,1017.71
2018-07-09T06:11:36.919Z,1017.69
2018-07-09T06:12:36.927Z,1017.76
2018-07-09T06:13:37.008Z,1017.73
2018-07-09T06:14:36.974Z,1017.75
2018-07-09T06:15:37.006Z,1017.76
2018-07-09T06:16:37.014Z,1017.75
2018-07-09T06:17:37.034Z,1017.77
2018-07-09T06:18:37.057Z,1017.78
2018-07-09T06:19:37.082Z,1017.79
2018-07-09T06:20:37.107Z,1017.79
2018-07-09T06:21:37.130Z,1017.79
2018-07-09T06:22:37.159Z,1017.78
2018-07-09T06:23:37.162Z,1017.80
2018-07-09T06:24:37.193Z,1017.78
2018-07-09T06:25:37.207Z,1017.80
2018-07-09T06:26:37.233Z,1017.81
2018-07-09T06:27:37.255Z,1017.74
2018-07-09T06:28:37.282Z,1017.76
2018-07-09T06:29:37.292Z,1017.70
2018-07-09T06:30:37.315Z,1017.69
2018-07-09T06:31:37.355Z,1017.70
2018-07-09T06:32:37.355Z,1017.72
2018-07-09T06:33:37.377Z,1017.74
2018-07-09T06:34:37.421Z,1017.71
2018-07-09T06:35:37.414Z,1017.69
2018-07-09T06:36:37.438Z,1017.69
2018-07-09T06:37:37.463Z,1017.70
2018-07-09T06:38:37.494Z,1017.72
2018-07-09T06:39:37.499Z,1017.68
2018-07-09T06:40:37.519Z,1017.67
2018-07-09T06:41:37.584Z,1017.67
2018-07-09T06:42:37.596Z,1017.63
2018-07-09T06:43:37.592Z,1017.66
2018-07-09T06:44:37.634Z,1017.68
2018-07-09T06:45:37.647Z,1017.67
2018-07-09T06:46:37.655Z,1017.68
2018-07-09T06:47:37.674Z,1017.68
2018-07-09T06:48:37.703Z,1017.71
2018-07-09T06:49:37.744Z,1017.68
2018-07-09T06:50:37.741Z,1017.68
2018-07-09T06:51:37.783Z,1017.66
2018-07-09T06:52:37.778Z,1017.69
2018-07-09T06:53:37.796Z,1017.71
2018-07-09T06:54:37.827Z,1017.71
2018-07-09T06:55:37.856Z,1017.69
2018-07-09T06:56:37.864Z,1017.71
2018-07-09T06:57:37.881Z,1017.73
2018-07-09T06:58:37.917Z,1017.76
2018-07-09T06:59:37.930Z,1017.78
2018-07-09T07:00:37.953Z,1017.77
2018-07-09T07:01:37.981Z,1017.76
2018-07-09T07:02:37.999Z,1017.76
2018-07-09T07:03:38.018Z,1017.77
2018-07-09T07:04:38.040Z,1017.75
2018-07-09T07:05:38.062Z,1017.72
2018-07-09T07:06:38.078Z,1017.75
2018-07-09T07:07:38.096Z,1017.75
2018-07-09T07:08:38.127Z,1017.71
2018-07-09T07:09:38.150Z,1017.72
2018-07-09T07:10:38.165Z,1017.72
2018-07-09T07:11:38.189Z,1017.71
2018-07-09T07:12:38.207Z,1017.73
2018-07-09T07:13:38.223Z,1017.77
2018-07-09T07:14:38.252Z,1017.73
2018-07-09T07:15:38.273Z,1017.74
2018-07-09T07:16:38.294Z,1017.70
2018-07-09T07:17:38.314Z,1017.73
2018-07-09T07:18:38.336Z,1017.70
2018-07-09T07:19:38.362Z,1017.71
2018-07-09T07:20:38.378Z,1017.69
2018-07-09T07:21:38.400Z,1017.73
2018-07-09T07:22:38.425Z,1017.74
2018-07-09T07:23:38.445Z,1017.73
2018-07-09T07:24:38.466Z,1017.72
2018-07-09T07:25:38.486Z,1017.69
2018-07-09T07:26:38.571Z,1017.69
2018-07-09T07:27:38.527Z,1017.69
2018-07-09T07:28:38.550Z,1017.70
2018-07-09T07:29:38.576Z,1017.72
2018-07-09T07:30:38.595Z,1017.71
2018-07-09T07:31:38.619Z,1017.74
2018-07-09T07:32:38.643Z,1017.78
2018-07-09T07:33:38.655Z,1017.76
2018-07-09T07:34:38.732Z,1017.72
2018-07-09T07:35:38.719Z,1017.67
2018-07-09T07:36:38.727Z,1017.66
2018-07-09T07:37:38.741Z,1017.65
2018-07-09T07:38:38.765Z,1017.62
2018-07-09T07:39:38.780Z,1017.65
2018-07-09T07:40:38.810Z,1017.69
2018-07-09T07:41:38.840Z,1017.66
2018-07-09T07:42:38.848Z,1017.69
2018-07-09T07:43:38.871Z,1017.64
2018-07-09T07:44:38.894Z,1017.68
2018-07-09T07:45:38.908Z,1017.62
2018-07-09T07:46:38.934Z,1017.63
2018-07-09T07:47:38.950Z,1017.60
2018-07-09T07:48:38.982Z,1017.60
2018-07-09T07:49:38.999Z,1017.64
2018-07-09T07:50:39.292Z,1017.63
2018-07-09T07:51:39.046Z,1017.68
2018-07-09T07:52:39.059Z,1017.66
2018-07-09T07:53:39.079Z,1017.65
2018-07-09T07:54:39.109Z,1017.68
2018-07-09T07:55:39.132Z,1017.68
2018-07-09T07:56:39.147Z,1017.68
2018-07-09T07:57:39.163Z,1017.68
2018-07-09T07:58:39.180Z,1017.62
2018-07-09T07:59:39.211Z,1017.65
2018-07-09T08:00:39.228Z,1017.64
2018-07-09T08:01:39.249Z,1017.59
2018-07-09T08:02:39.314Z,1017.58
2018-07-09T08:03:39.292Z,1017.63
2018-07-09T08:04:39.321Z,1017.57
2018-07-09T08:05:39.354Z,1017.55
2018-07-09T08:06:39.361Z,1017.58
2018-07-09T08:07:39.393Z,1017.53
2018-07-09T08:08:39.397Z,1017.49
2018-07-09T08:09:39.476Z,1017.50
2018-07-09T08:10:39.444Z,1017.51
2018-07-09T08:11:48.561Z,1017.50
2018-07-09T08:13:39.520Z,1017.54
2018-07-09T08:14:39.520Z,1017.60
2018-07-09T08:15:39.635Z,1017.52
2018-07-09T08:16:39.557Z,1017.51
2018-07-09T08:17:39.575Z,1017.51
2018-07-09T08:18:39.620Z,1017.52
2018-07-09T08:19:39.669Z,1017.52
2018-07-09T08:20:39.656Z,1017.53
2018-07-09T08:21:39.681Z,1017.53
2018-07-09T08:22:39.691Z,1017.50
2018-07-09T08:23:39.710Z,1017.52
2018-07-09T08:24:39.733Z,1017.48
2018-07-09T08:25:39.834Z,1017.48
2018-07-09T08:26:39.772Z,1017.56
2018-07-09T08:27:39.808Z,1017.52
2018-07-09T08:28:39.814Z,1017.56
2018-07-09T08:29:39.848Z,1017.55
2018-07-09T08:30:39.858Z,1017.58
2018-07-09T08:31:39.886Z,1017.54
2018-07-09T08:32:39.896Z,1017.53
2018-07-09T08:33:39.917Z,1017.55
2018-07-09T08:34:39.938Z,1017.47
2018-07-09T08:35:39.965Z,1017.52
2018-07-09T08:36:39.975Z,1017.46
2018-07-09T08:37:40.005Z,1017.47
2018-07-09T08:38:40.025Z,1017.47
2018-07-09T08:39:40.054Z,1017.50
2018-07-09T08:40:40.065Z,1017.49
2018-07-09T08:41:40.088Z,1017.45
2018-07-09T08:42:40.112Z,1017.44
2018-07-09T08:43:40.132Z,1017.45
2018-07-09T08:44:40.152Z,1017.43
2018-07-09T08:45:40.171Z,1017.46
2018-07-09T08:46:40.184Z,1017.40
2018-07-09T08:47:40.266Z,1017.45
2018-07-09T08:48:40.233Z,1017.47
2018-07-09T08:49:40.256Z,1017.42
2018-07-09T08:50:40.276Z,1017.47
2018-07-09T08:51:40.296Z,1017.43
2018-07-09T08:52:40.313Z,1017.42
2018-07-09T08:53:40.347Z,1017.40
2018-07-09T08:54:40.386Z,1017.40
2018-07-09T08:55:40.388Z,1017.43
2018-07-09T08:56:40.404Z,1017.43
2018-07-09T08:57:40.423Z,1017.45
2018-07-09T08:58:40.441Z,1017.40
2018-07-09T08:59:40.461Z,1017.40
2018-07-09T09:00:40.503Z,1017.41
2018-07-09T09:01:40.562Z,1017.36
2018-07-09T09:02:40.530Z,1017.41
2018-07-09T09:03:40.600Z,1017.34
2018-07-09T09:04:40.646Z,1017.30
2018-07-09T09:05:40.591Z,1017.35
2018-07-09T09:06:40.702Z,1017.33
2018-07-09T09:07:40.693Z,1017.31
2018-07-09T09:08:40.669Z,1017.32
2018-07-09T09:09:40.677Z,1017.31
2018-07-09T09:10:40.708Z,1017.28
2018-07-09T09:11:40.719Z,1017.28
2018-07-09T09:12:40.744Z,1017.28
2018-07-09T09:13:40.764Z,1017.28
2018-07-09T09:14:40.785Z,1017.27
2018-07-09T09:15:40.802Z,1017.33
2018-07-09T09:16:40.904Z,1017.29
2018-07-09T09:17:40.844Z,1017.28
2018-07-09T09:18:40.864Z,1017.29
2018-07-09T09:19:40.880Z,1017.27
2018-07-09T09:20:40.910Z,1017.25
2018-07-09T09:21:40.935Z,1017.26
2018-07-09T09:22:40.953Z,1017.24
2018-07-09T09:23:40.968Z,1017.26
2018-07-09T09:24:40.985Z,1017.31
2018-07-09T09:25:41.016Z,1017.31
2018-07-09T09:26:41.049Z,1017.30
2018-07-09T09:27:41.054Z,1017.26
2018-07-09T09:28:41.073Z,1017.27
2018-07-09T09:29:41.102Z,1017.27
2018-07-09T09:30:41.172Z,1017.25
2018-07-09T09:31:41.165Z,1017.28
2018-07-09T09:32:41.164Z,1017.29
2018-07-09T09:33:41.177Z,1017.26
2018-07-09T09:34:41.201Z,1017.29
2018-07-09T09:35:41.222Z,1017.23
2018-07-09T09:36:41.247Z,1017.21
2018-07-09T09:37:41.271Z,1017.23
2018-07-09T09:38:41.318Z,1017.23
2018-07-09T09:39:41.316Z,1017.20
2018-07-09T09:40:41.338Z,1017.16
2018-07-09T09:41:41.342Z,1017.16
2018-07-09T09:42:41.372Z,1017.15
2018-07-09T09:43:41.393Z,1017.13
2018-07-09T09:44:41.415Z,1017.12
2018-07-09T09:45:41.435Z,1017.12
2018-07-09T09:46:41.445Z,1017.14
2018-07-09T09:47:41.480Z,1017.09
2018-07-09T09:48:41.501Z,1017.09
2018-07-09T09:49:41.519Z,1017.03
2018-07-09T09:50:41.546Z,1017.02
2018-07-09T09:51:41.561Z,1017.03
2018-07-09T09:52:41.584Z,1016.95
2018-07-09T09:53:41.597Z,1017.01
2018-07-09T09:54:41.628Z,1016.93
2018-07-09T09:55:41.663Z,1016.89
2018-07-09T09:56:41.665Z,1016.90
2018-07-09T09:57:41.680Z,1016.88
2018-07-09T09:58:41.711Z,1016.96
2018-07-09T09:59:41.736Z,1016.89
2018-07-09T10:00:41.885Z,1016.93
2018-07-09T10:01:41.776Z,1016.89
2018-07-09T10:02:41.789Z,1016.85
2018-07-09T10:03:41.811Z,1016.83
2018-07-09T10:04:41.849Z,1016.76
2018-07-09T10:05:41.855Z,1016.84
2018-07-09T10:06:41.942Z,1016.75
2018-07-09T10:07:41.900Z,1016.80
2018-07-09T10:08:41.949Z,1016.82
2018-07-09T10:09:41.945Z,1016.73
2018-07-09T10:10:41.975Z,1016.74
2018-07-09T10:11:41.994Z,1016.74
2018-07-09T10:12:42.006Z,1016.76
2018-07-09T10:13:42.019Z,1016.74
2018-07-09T10:14:42.043Z,1016.69
2018-07-09T10:15:42.077Z,1016.73
2018-07-09T10:16:42.093Z,1016.66
2018-07-09T10:17:42.117Z,1016.65
2018-07-09T10:18:42.132Z,1016.69
2018-07-09T10:19:42.151Z,1016.70
2018-07-09T10:20:42.173Z,1016.65
2018-07-09T10:21:42.192Z,1016.67
2018-07-09T10:22:42.212Z,1016.70
2018-07-09T10:23:42.292Z,1016.70
2018-07-09T10:24:42.290Z,1016.71
2018-07-09T10:25:42.292Z,1016.69
2018-07-09T10:26:42.306Z,1016.71
2018-07-09T10:27:42.316Z,1016.64
2018-07-09T10:28:42.343Z,1016.65
2018-07-09T10:29:42.359Z,1016.72
2018-07-09T10:30:42.379Z,1016.65
2018-07-09T10:31:42.396Z,1016.59
2018-07-09T10:32:42.420Z,1016.64
2018-07-09T10:33:42.444Z,1016.66
2018-07-09T10:34:42.471Z,1016.69
2018-07-09T10:35:42.489Z,1016.67
2018-07-09T10:36:42.503Z,1016.71
2018-07-09T10:37:42.532Z,1016.67
2018-07-09T10:38:42.554Z,1016.61
2018-07-09T10:39:42.572Z,1016.68
2018-07-09T10:40:42.608Z,1016.65
2018-07-09T10:41:42.625Z,1016.64
2018-07-09T10:42:42.634Z,1016.67
2018-07-09T10:43:42.651Z,1016.63
2018-07-09T10:44:42.683Z,1016.63
2018-07-09T10:45:42.696Z,1016.60
2018-07-09T10:46:42.731Z,1016.60
2018-07-09T10:47:42.742Z,1016.57
2018-07-09T10:48:42.766Z,1016.64
2018-07-09T10:49:42.787Z,1016.56
2018-07-09T10:50:42.812Z,1016.59
2018-07-09T10:51:42.836Z,1016.57
2018-07-09T10:52:42.886Z,1016.60
2018-07-09T10:53:42.876Z,1016.53
2018-07-09T10:54:42.894Z,1016.54
2018-07-09T10:55:42.916Z,1016.51
2018-07-09T10:56:42.934Z,1016.52
2018-07-09T10:57:42.954Z,1016.53
2018-07-09T10:58:42.981Z,1016.50
2018-07-09T10:59:42.993Z,1016.56
2018-07-09T11:00:43.041Z,1016.57
2018-07-09T11:01:43.045Z,1016.54
2018-07-09T11:02:43.061Z,1016.60
2018-07-09T11:03:43.082Z,1016.58
2018-07-09T11:04:43.101Z,1016.58
2018-07-09T11:05:43.124Z,1016.55
2018-07-09T11:06:43.139Z,1016.55
2018-07-09T11:07:43.168Z,1016.54
2018-07-09T11:08:43.189Z,1016.51
2018-07-09T11:09:43.220Z,1016.51
2018-07-09T11:10:43.237Z,1016.48
2018-07-09T11:11:43.253Z,1016.49
2018-07-09T11:12:43.269Z,1016.43
2018-07-09T11:13:43.289Z,1016.45
2018-07-09T11:14:43.326Z,1016.37
2018-07-09T11:15:43.332Z,1016.37
2018-07-09T11:16:43.358Z,1016.41
2018-07-09T11:17:43.414Z,1016.39
2018-07-09T11:18:43.396Z,1016.41
2018-07-09T11:19:43.422Z,1016.38
2018-07-09T11:20:43.438Z,1016.28
2018-07-09T11:21:43.548Z,1016.28
2018-07-09T11:22:43.495Z,1016.33
2018-07-09T11:23:43.502Z,1016.31
2018-07-09T11:24:43.522Z,1016.32
2018-07-09T11:25:43.551Z,1016.31
2018-07-09T11:26:43.567Z,1016.34
2018-07-09T11:27:43.588Z,1016.27
2018-07-09T11:28:43.615Z,1016.26
2018-07-09T11:29:43.628Z,1016.22
2018-07-09T11:30:43.654Z,1016.21
2018-07-09T11:31:43.673Z,1016.16
2018-07-09T11:32:43.760Z,1016.18
2018-07-09T11:33:43.716Z,1016.16
2018-07-09T11:34:43.730Z,1016.23
2018-07-09T11:35:43.755Z,1016.20
2018-07-09T11:36:43.786Z,1016.18
2018-07-09T11:37:43.796Z,1016.22
2018-07-09T11:38:43.821Z,1016.28
2018-07-09T11:39:43.828Z,1016.27
2018-07-09T11:40:43.863Z,1016.23
2018-07-09T11:41:43.883Z,1016.26
2018-07-09T11:42:43.926Z,1016.27
2018-07-09T11:43:43.923Z,1016.23
2018-07-09T11:44:43.968Z,1016.23
2018-07-09T11:45:43.965Z,1016.27
2018-07-09T11:46:43.999Z,1016.29
2018-07-09T11:47:44.071Z,1016.24
2018-07-09T11:48:44.060Z,1016.26
2018-07-09T11:49:44.076Z,1016.24
2018-07-09T11:50:44.067Z,1016.23
2018-07-09T11:51:44.088Z,1016.25
2018-07-09T11:52:44.175Z,1016.23
2018-07-09T11:53:44.136Z,1016.25
2018-07-09T11:54:44.164Z,1016.23
2018-07-09T11:55:44.202Z,1016.17
2018-07-09T11:56:44.200Z,1016.19
2018-07-09T11:57:44.224Z,1016.23
2018-07-09T11:58:44.265Z,1016.20
2018-07-09T11:59:44.283Z,1016.17
2018-07-09T12:00:44.283Z,1016.15
2018-07-09T12:01:44.298Z,1016.21
2018-07-09T12:02:44.387Z,1016.23
2018-07-09T12:03:44.364Z,1016.16
2018-07-09T12:04:44.373Z,1016.14
2018-07-09T12:05:44.436Z,1016.13
2018-07-09T12:06:44.415Z,1016.16